createdAt,value
2023-05-14T00:00:02.773Z,8.80
2023-05-14T00:01:02.781Z,8.79
2023-05-14T00:02:02.771Z,8.78
2023-05-14T00:03:02.909Z,8.78
2023-05-14T00:04:02.822Z,8.76
2023-05-14T00:05:02.717Z,8.75
2023-05-14T00:06:02.701Z,8.75
2023-05-14T00:07:02.691Z,8.73
2023-05-14T00:08:02.694Z,8.73
2023-05-14T00:09:02.692Z,8.70
2023-05-14T00:10:02.718Z,8.70
2023-05-14T00:11:02.657Z,8.67
2023-05-14T00:12:02.674Z,8.68
2023-05-14T00:13:02.636Z,8.68
2023-05-14T00:14:02.662Z,8.67
2023-05-14T00:15:02.621Z,8.65
2023-05-14T00:16:02.649Z,8.65
2023-05-14T00:17:02.636Z,8.63
2023-05-14T00:18:02.621Z,8.60
2023-05-14T00:19:02.650Z,8.58
2023-05-14T00:20:02.576Z,8.58
2023-05-14T00:21:02.546Z,8.60
2023-05-14T00:22:02.579Z,8.57
2023-05-14T00:23:02.523Z,8.57
2023-05-14T00:24:02.499Z,8.55
2023-05-14T00:25:02.525Z,8.54
2023-05-14T00:26:02.502Z,8.55
2023-05-14T00:27:02.494Z,8.55
2023-05-14T00:28:02.486Z,8.57
2023-05-14T00:29:02.495Z,8.55
2023-05-14T00:30:02.485Z,8.55
2023-05-14T00:31:02.446Z,8.55
2023-05-14T00:32:02.438Z,8.52
2023-05-14T00:33:02.471Z,8.54
2023-05-14T00:34:02.453Z,8.50
2023-05-14T00:35:02.435Z,8.50
2023-05-14T00:36:02.387Z,8.49
2023-05-14T00:37:02.362Z,8.46
2023-05-14T00:38:02.375Z,8.43
2023-05-14T00:39:02.351Z,8.40
2023-05-14T00:40:02.380Z,8.39
2023-05-14T00:41:02.343Z,8.37
2023-05-14T00:42:02.334Z,8.34
2023-05-14T00:43:02.307Z,8.32
2023-05-14T00:44:02.308Z,8.32
2023-05-14T00:45:02.296Z,8.32
2023-05-14T00:46:02.268Z,8.32
2023-05-14T00:47:02.432Z,8.34
2023-05-14T00:48:02.318Z,8.37
2023-05-14T00:49:02.238Z,8.39
2023-05-14T00:50:02.221Z,8.39
2023-05-14T00:51:02.212Z,8.42
2023-05-14T00:52:02.229Z,8.43
2023-05-14T00:53:02.193Z,8.43
2023-05-14T00:54:02.197Z,8.47
2023-05-14T00:55:02.208Z,8.47
2023-05-14T00:56:02.175Z,8.47
2023-05-14T00:57:02.162Z,8.45
2023-05-14T00:58:02.127Z,8.39
2023-05-14T00:59:02.136Z,8.36
2023-05-14T01:00:02.136Z,8.31
2023-05-14T01:01:02.174Z,8.31
2023-05-14T01:02:02.088Z,8.28
2023-05-14T01:03:02.171Z,8.27
2023-05-14T01:04:02.106Z,8.28
2023-05-14T01:05:02.075Z,8.27
2023-05-14T01:06:02.051Z,8.27
2023-05-14T01:07:02.043Z,8.27
2023-05-14T01:08:02.029Z,8.28
2023-05-14T01:09:02.042Z,8.28
2023-05-14T01:10:02.005Z,8.28
2023-05-14T01:11:01.994Z,8.28
2023-05-14T01:12:01.968Z,8.31
2023-05-14T01:13:01.982Z,8.27
2023-05-14T01:14:01.965Z,8.21
2023-05-14T01:15:01.975Z,8.20
2023-05-14T01:16:01.984Z,8.17
2023-05-14T01:17:01.923Z,8.14
2023-05-14T01:18:01.911Z,8.18
2023-05-14T01:19:01.990Z,8.18
2023-05-14T01:20:01.894Z,8.14
2023-05-14T01:21:01.868Z,8.13
2023-05-14T01:22:01.886Z,8.12
2023-05-14T01:23:01.872Z,8.13
2023-05-14T01:24:01.849Z,8.12
2023-05-14T01:25:01.841Z,8.10
2023-05-14T01:26:01.821Z,8.10
2023-05-14T01:27:01.828Z,8.10
2023-05-14T01:28:01.799Z,8.12
2023-05-14T01:29:01.831Z,8.12
2023-05-14T01:30:01.803Z,8.13
2023-05-14T01:31:01.786Z,8.13
2023-05-14T01:32:01.759Z,8.10
2023-05-14T01:33:01.786Z,8.10
2023-05-14T01:34:01.754Z,8.09
2023-05-14T01:35:01.745Z,8.07
2023-05-14T01:36:01.727Z,8.06
2023-05-14T01:37:01.719Z,8.04
2023-05-14T01:38:01.692Z,8.03
2023-05-14T01:39:01.704Z,8.02
2023-05-14T01:40:01.666Z,8.00
2023-05-14T01:41:01.686Z,7.99
2023-05-14T01:42:01.644Z,7.96
2023-05-14T01:43:01.714Z,7.99
2023-05-14T01:44:01.625Z,7.96
2023-05-14T01:45:01.622Z,7.96
2023-05-14T01:46:01.628Z,7.99
2023-05-14T01:47:01.606Z,7.99
2023-05-14T01:48:01.622Z,8.00
2023-05-14T01:49:01.558Z,8.02
2023-05-14T01:50:01.555Z,8.02
2023-05-14T01:51:01.556Z,8.03
2023-05-14T01:52:01.524Z,8.02
2023-05-14T01:53:01.573Z,8.02
2023-05-14T01:54:01.547Z,8.00
2023-05-14T01:55:01.517Z,8.00
2023-05-14T01:56:01.480Z,8.02
2023-05-14T01:57:01.483Z,8.00
2023-05-14T01:58:01.461Z,7.96
2023-05-14T01:59:01.488Z,7.94
2023-05-14T02:00:01.452Z,7.92
2023-05-14T02:01:01.460Z,7.91
2023-05-14T02:02:01.496Z,7.91
2023-05-14T02:03:01.450Z,7.88
2023-05-14T02:04:01.408Z,7.86
2023-05-14T02:05:01.383Z,7.86
2023-05-14T02:06:01.392Z,7.85
2023-05-14T02:07:01.387Z,7.86
2023-05-14T02:08:01.368Z,7.85
2023-05-14T02:09:01.356Z,7.82
2023-05-14T02:10:01.342Z,7.85
2023-05-14T02:11:01.326Z,7.85
2023-05-14T02:12:01.298Z,7.85
2023-05-14T02:13:01.292Z,7.85
2023-05-14T02:14:01.286Z,7.85
2023-05-14T02:15:01.282Z,7.84
2023-05-14T02:16:01.304Z,7.85
2023-05-14T02:17:01.260Z,7.85
2023-05-14T02:18:01.281Z,7.84
2023-05-14T02:19:01.269Z,7.84
2023-05-14T02:20:01.206Z,7.82
2023-05-14T02:21:01.205Z,7.82
2023-05-14T02:22:01.242Z,7.84
2023-05-14T02:23:01.210Z,7.85
2023-05-14T02:24:01.174Z,7.85
2023-05-14T02:25:01.182Z,7.88
2023-05-14T02:26:01.148Z,7.89
2023-05-14T02:27:01.228Z,7.92
2023-05-14T02:28:01.138Z,7.94
2023-05-14T02:29:01.126Z,7.94
2023-05-14T02:30:01.160Z,7.95
2023-05-14T02:31:01.167Z,7.96
2023-05-14T02:32:01.087Z,7.96
2023-05-14T02:33:01.167Z,8.00
2023-05-14T02:34:01.064Z,8.02
2023-05-14T02:35:01.065Z,8.04
2023-05-14T02:36:01.089Z,8.04
2023-05-14T02:37:01.066Z,8.04
2023-05-14T02:38:01.038Z,8.06
2023-05-14T02:39:01.031Z,8.07
2023-05-14T02:40:01.007Z,8.06
2023-05-14T02:41:00.993Z,8.02
2023-05-14T02:42:00.981Z,7.96
2023-05-14T02:43:00.968Z,7.99
2023-05-14T02:44:00.965Z,8.00
2023-05-14T02:45:00.950Z,8.03
2023-05-14T02:46:00.968Z,8.04
2023-05-14T02:47:00.972Z,8.07
2023-05-14T02:48:00.945Z,8.07
2023-05-14T02:49:00.902Z,8.09
2023-05-14T02:50:00.908Z,8.10
2023-05-14T02:51:00.880Z,8.12
2023-05-14T02:52:00.896Z,8.12
2023-05-14T02:53:00.856Z,8.12
2023-05-14T02:54:00.880Z,8.13
2023-05-14T02:55:00.849Z,8.13
2023-05-14T02:56:00.840Z,8.17
2023-05-14T02:57:00.813Z,8.17
2023-05-14T02:58:00.802Z,8.17
2023-05-14T02:59:00.801Z,8.14
2023-05-14T03:00:00.792Z,8.14
2023-05-14T03:01:00.797Z,8.14
2023-05-14T03:02:00.796Z,8.17
2023-05-14T03:03:00.799Z,8.13
2023-05-14T03:04:00.757Z,8.13
2023-05-14T03:05:00.733Z,8.14
2023-05-14T03:06:00.724Z,8.13
2023-05-14T03:07:00.718Z,8.13
2023-05-14T03:08:00.686Z,8.13
2023-05-14T03:09:00.697Z,8.10
2023-05-14T03:10:00.689Z,8.12
2023-05-14T03:11:00.659Z,8.12
2023-05-14T03:12:00.657Z,8.10
2023-05-14T03:13:00.669Z,8.12
2023-05-14T03:14:00.659Z,8.12
2023-05-14T03:15:00.630Z,8.10
2023-05-14T03:16:00.610Z,8.12
2023-05-14T03:17:00.679Z,8.10
2023-05-14T03:18:00.613Z,8.10
2023-05-14T03:19:00.696Z,8.09
2023-05-14T03:20:00.583Z,8.07
2023-05-14T03:21:00.568Z,8.06
2023-05-14T03:22:00.563Z,8.07
2023-05-14T03:23:00.550Z,8.06
2023-05-14T03:24:00.516Z,8.07
2023-05-14T03:25:00.552Z,8.03
2023-05-14T03:26:00.487Z,8.02
2023-05-14T03:27:00.476Z,8.00
2023-05-14T03:28:00.506Z,8.02
2023-05-14T03:29:00.450Z,8.02
2023-05-14T03:30:00.485Z,8.06
2023-05-14T03:31:00.482Z,8.09
2023-05-14T03:32:00.445Z,8.07
2023-05-14T03:33:00.475Z,8.06
2023-05-14T03:34:00.434Z,8.06
2023-05-14T03:35:00.414Z,8.07
2023-05-14T03:36:00.376Z,8.09
2023-05-14T03:37:00.385Z,8.12
2023-05-14T03:38:00.361Z,8.17
2023-05-14T03:39:00.345Z,8.18
2023-05-14T03:40:00.323Z,8.20
2023-05-14T03:41:00.359Z,8.21
2023-05-14T03:42:00.318Z,8.22
2023-05-14T03:43:00.296Z,8.27
2023-05-14T03:44:00.286Z,8.28
2023-05-14T03:45:00.289Z,8.31
2023-05-14T03:46:00.264Z,8.32
2023-05-14T03:47:00.266Z,8.34
2023-05-14T03:48:00.350Z,8.34
2023-05-14T03:49:00.277Z,8.34
2023-05-14T03:50:00.248Z,8.34
2023-05-14T03:51:00.227Z,8.36
2023-05-14T03:52:00.196Z,8.37
2023-05-14T03:53:00.184Z,8.37
2023-05-14T03:54:00.175Z,8.39
2023-05-14T03:55:00.178Z,8.39
2023-05-14T03:56:00.153Z,8.37
2023-05-14T03:57:00.157Z,8.36
2023-05-14T03:58:00.199Z,8.32
2023-05-14T03:59:00.134Z,8.32
2023-05-14T04:00:00.182Z,8.31
2023-05-14T04:01:00.137Z,8.31
2023-05-14T04:02:00.130Z,8.29
2023-05-14T04:03:00.198Z,8.29
2023-05-14T04:04:00.170Z,8.28
2023-05-14T04:05:00.074Z,8.29
2023-05-14T04:06:00.051Z,8.29
2023-05-14T04:07:00.055Z,8.29
2023-05-14T04:08:00.011Z,8.31
2023-05-14T04:09:00.066Z,8.34
2023-05-14T04:10:01.269Z,8.32
2023-05-14T04:11:00.006Z,8.32
2023-05-14T04:11:59.989Z,8.32
2023-05-14T04:13:00.007Z,8.36
2023-05-14T04:13:59.965Z,8.36
2023-05-14T04:14:59.983Z,8.34
2023-05-14T04:16:00.022Z,8.34
2023-05-14T04:17:00.450Z,8.36
2023-05-14T04:17:59.973Z,8.39
2023-05-14T04:19:00.043Z,8.40
2023-05-14T04:20:00.017Z,8.40
2023-05-14T04:20:59.891Z,8.42
2023-05-14T04:21:59.895Z,8.45
2023-05-14T04:22:59.867Z,8.45
2023-05-14T04:23:59.872Z,8.47
2023-05-14T04:24:59.850Z,8.50
2023-05-14T04:25:59.819Z,8.54
2023-05-14T04:26:59.818Z,8.57
2023-05-14T04:27:59.793Z,8.54
2023-05-14T04:28:59.807Z,8.58
2023-05-14T04:29:59.796Z,8.61
2023-05-14T04:30:59.780Z,8.60
2023-05-14T04:31:59.835Z,8.60
2023-05-14T04:32:59.808Z,8.60
2023-05-14T04:33:59.732Z,8.60
2023-05-14T04:34:59.738Z,8.60
2023-05-14T04:35:59.726Z,8.60
2023-05-14T04:36:59.756Z,8.61
2023-05-14T04:37:59.684Z,8.61
2023-05-14T04:38:59.707Z,8.61
2023-05-14T04:39:59.681Z,8.61
2023-05-14T04:40:59.662Z,8.63
2023-05-14T04:41:59.646Z,8.63
2023-05-14T04:42:59.627Z,8.63
2023-05-14T04:43:59.623Z,8.64
2023-05-14T04:44:59.620Z,8.65
2023-05-14T04:45:59.623Z,8.68
2023-05-14T04:46:59.593Z,8.71
2023-05-14T04:47:59.607Z,8.75
2023-05-14T04:48:59.561Z,8.75
2023-05-14T04:49:59.554Z,8.76
2023-05-14T04:50:59.529Z,8.76
2023-05-14T04:51:59.542Z,8.78
2023-05-14T04:52:59.520Z,8.78
2023-05-14T04:53:59.567Z,8.79
2023-05-14T04:54:59.509Z,8.79
2023-05-14T04:55:59.480Z,8.82
2023-05-14T04:56:59.483Z,8.83
2023-05-14T04:57:59.462Z,8.82
2023-05-14T04:58:59.498Z,8.83
2023-05-14T04:59:59.454Z,8.85
2023-05-14T05:00:59.476Z,8.85
2023-05-14T05:01:59.468Z,8.86
2023-05-14T05:02:59.497Z,8.88
2023-05-14T05:03:59.495Z,8.91
2023-05-14T05:04:59.410Z,8.93
2023-05-14T05:05:59.399Z,8.94
2023-05-14T05:06:59.369Z,8.94
2023-05-14T05:07:59.371Z,8.94
2023-05-14T05:09:01.834Z,8.93
2023-05-14T05:09:59.336Z,8.89
2023-05-14T05:10:59.328Z,8.89
2023-05-14T05:11:59.306Z,8.88
2023-05-14T05:12:59.295Z,8.89
2023-05-14T05:13:59.302Z,8.89
2023-05-14T05:14:59.289Z,8.93
2023-05-14T05:15:59.343Z,8.96
2023-05-14T05:16:59.257Z,8.97
2023-05-14T05:17:59.301Z,8.98
2023-05-14T05:18:59.341Z,8.97
2023-05-14T05:19:59.247Z,8.94
2023-05-14T05:20:59.258Z,8.89
2023-05-14T05:21:59.226Z,8.88
2023-05-14T05:22:59.195Z,8.86
2023-05-14T05:23:59.196Z,8.86
2023-05-14T05:24:59.188Z,8.88
2023-05-14T05:25:59.228Z,8.91
2023-05-14T05:26:59.162Z,8.94
2023-05-14T05:27:59.154Z,8.96
2023-05-14T05:28:59.119Z,8.98
2023-05-14T05:29:59.112Z,9.00
2023-05-14T05:30:59.113Z,9.01
2023-05-14T05:31:59.123Z,9.03
2023-05-14T05:32:59.164Z,9.04
2023-05-14T05:33:59.077Z,9.08
2023-05-14T05:34:59.058Z,9.08
2023-05-14T05:35:59.055Z,9.12
2023-05-14T05:36:59.056Z,9.15
2023-05-14T05:38:01.349Z,9.17
2023-05-14T05:38:59.042Z,9.22
2023-05-14T05:39:59.015Z,9.23
2023-05-14T05:40:59.005Z,9.24
2023-05-14T05:41:59.005Z,9.26
2023-05-14T05:42:58.980Z,9.24
2023-05-14T05:43:58.956Z,9.24
2023-05-14T05:44:58.954Z,9.23
2023-05-14T05:45:58.931Z,9.20
2023-05-14T05:46:58.982Z,9.22
2023-05-14T05:47:58.959Z,9.24
2023-05-14T05:48:58.906Z,9.26
2023-05-14T05:49:58.894Z,9.30
2023-05-14T05:50:58.888Z,9.32
2023-05-14T05:51:58.878Z,9.35
2023-05-14T05:52:58.890Z,9.38
2023-05-14T05:53:58.868Z,9.38
2023-05-14T05:54:58.863Z,9.42
2023-05-14T05:55:58.849Z,9.49
2023-05-14T05:56:58.816Z,9.50
2023-05-14T05:57:58.815Z,9.53
2023-05-14T05:58:58.793Z,9.59
2023-05-14T05:59:58.788Z,9.65
2023-05-14T06:00:58.810Z,9.70
2023-05-14T06:01:58.793Z,9.71
2023-05-14T06:02:58.809Z,9.75
2023-05-14T06:03:58.803Z,9.78
2023-05-14T06:04:58.763Z,9.81
2023-05-14T06:05:58.722Z,9.86
2023-05-14T06:06:58.710Z,9.86
2023-05-14T06:07:58.696Z,9.88
2023-05-14T06:08:58.677Z,9.92
2023-05-14T06:09:58.686Z,9.93
2023-05-14T06:10:58.663Z,9.93
2023-05-14T06:11:58.655Z,9.93
2023-05-14T06:12:58.654Z,9.98
2023-05-14T06:13:58.655Z,10.01
2023-05-14T06:14:58.605Z,10.06
2023-05-14T06:15:58.631Z,10.07
2023-05-14T06:16:58.637Z,10.09
2023-05-14T06:17:58.661Z,10.06
2023-05-14T06:18:58.669Z,10.01
2023-05-14T06:19:58.575Z,9.99
2023-05-14T06:20:58.572Z,9.98
2023-05-14T06:21:58.544Z,10.01
2023-05-14T06:22:58.535Z,10.02
2023-05-14T06:23:58.545Z,10.04
2023-05-14T06:24:58.514Z,10.04
2023-05-14T06:25:58.514Z,10.07
2023-05-14T06:26:58.486Z,10.07
2023-05-14T06:27:58.514Z,10.06
2023-05-14T06:28:58.478Z,10.09
2023-05-14T06:29:58.463Z,10.10
2023-05-14T06:30:58.442Z,10.09
2023-05-14T06:31:58.474Z,10.10
2023-05-14T06:32:58.421Z,10.16
2023-05-14T06:33:58.402Z,10.20
2023-05-14T06:34:58.432Z,10.22
2023-05-14T06:35:58.378Z,10.25
2023-05-14T06:36:58.369Z,10.31
2023-05-14T06:37:58.358Z,10.36
2023-05-14T06:38:58.421Z,10.42
2023-05-14T06:39:58.332Z,10.49
2023-05-14T06:40:58.367Z,10.55
2023-05-14T06:41:58.317Z,10.62
2023-05-14T06:42:58.341Z,10.63
2023-05-14T06:43:58.305Z,10.65
2023-05-14T06:44:58.300Z,10.70
2023-05-14T06:45:58.274Z,10.69
2023-05-14T06:46:58.268Z,10.76
2023-05-14T06:47:58.338Z,10.81
2023-05-14T06:48:59.664Z,10.87
2023-05-14T06:49:58.230Z,10.93
2023-05-14T06:50:58.237Z,11.01
2023-05-14T06:51:58.197Z,11.06
2023-05-14T06:52:58.188Z,11.09
2023-05-14T06:53:58.196Z,11.12
2023-05-14T06:54:58.163Z,11.16
2023-05-14T06:55:58.177Z,11.20
2023-05-14T06:56:58.150Z,11.23
2023-05-14T06:57:58.140Z,11.26
2023-05-14T06:58:58.116Z,11.30
2023-05-14T06:59:58.128Z,11.35
2023-05-14T07:00:58.123Z,11.41
2023-05-14T07:01:58.148Z,11.44
2023-05-14T07:02:58.109Z,11.48
2023-05-14T07:03:58.132Z,11.56
2023-05-14T07:04:58.068Z,11.60
2023-05-14T07:05:58.087Z,11.67
2023-05-14T07:06:58.048Z,11.75
2023-05-14T07:07:58.036Z,11.79
2023-05-14T07:08:58.058Z,11.84
2023-05-14T07:09:58.038Z,11.87
2023-05-14T07:10:57.996Z,11.93
2023-05-14T07:11:57.976Z,11.97
2023-05-14T07:12:58.006Z,12.01
2023-05-14T07:13:57.969Z,12.08
2023-05-14T07:14:57.964Z,12.12
2023-05-14T07:15:57.950Z,12.16
2023-05-14T07:16:57.950Z,12.19
2023-05-14T07:17:57.993Z,12.22
2023-05-14T07:18:57.932Z,12.25
2023-05-14T07:19:57.896Z,12.29
2023-05-14T07:20:57.908Z,12.30
2023-05-14T07:21:57.874Z,12.34
2023-05-14T07:22:57.877Z,12.38
2023-05-14T07:23:57.858Z,12.44
2023-05-14T07:24:57.839Z,12.49
2023-05-14T07:25:57.845Z,12.51
2023-05-14T07:26:57.813Z,12.54
2023-05-14T07:27:57.817Z,12.59
2023-05-14T07:28:57.781Z,12.63
2023-05-14T07:29:57.803Z,12.70
2023-05-14T07:30:57.796Z,12.76
2023-05-14T07:31:57.769Z,12.79
2023-05-14T07:32:57.772Z,12.84
2023-05-14T07:33:57.751Z,12.89
2023-05-14T07:34:57.755Z,12.92
2023-05-14T07:35:57.743Z,12.95
2023-05-14T07:36:57.718Z,13.01
2023-05-14T07:37:57.701Z,13.04
2023-05-14T07:38:57.683Z,13.09
2023-05-14T07:39:57.678Z,13.12
2023-05-14T07:40:57.649Z,13.14
2023-05-14T07:41:57.700Z,13.13
2023-05-14T07:42:57.631Z,13.14
2023-05-14T07:43:57.632Z,13.19
2023-05-14T07:44:57.645Z,13.21
2023-05-14T07:45:57.618Z,13.28
2023-05-14T07:46:57.632Z,13.32
2023-05-14T07:47:57.706Z,13.41
2023-05-14T07:48:57.583Z,13.46
2023-05-14T07:49:57.580Z,13.50
2023-05-14T07:50:57.562Z,13.50
2023-05-14T07:51:57.540Z,13.51
2023-05-14T07:52:57.530Z,13.51
2023-05-14T07:53:57.521Z,13.48
2023-05-14T07:54:57.523Z,13.53
2023-05-14T07:55:57.484Z,13.55
2023-05-14T07:56:57.485Z,13.59
2023-05-14T07:57:57.485Z,13.63
2023-05-14T07:58:57.456Z,13.71
2023-05-14T07:59:57.507Z,13.79
2023-05-14T08:00:57.430Z,13.81
2023-05-14T08:01:57.463Z,13.86
2023-05-14T08:02:57.632Z,13.83
2023-05-14T08:03:57.492Z,13.75
2023-05-14T08:04:57.410Z,13.73
2023-05-14T08:05:57.399Z,13.79
2023-05-14T08:06:57.379Z,13.80
2023-05-14T08:07:57.355Z,13.84
2023-05-14T08:08:57.340Z,13.88
2023-05-14T08:09:57.372Z,13.86
2023-05-14T08:10:57.386Z,13.84
2023-05-14T08:11:57.325Z,13.83
2023-05-14T08:12:57.300Z,13.80
2023-05-14T08:13:57.309Z,13.81
2023-05-14T08:14:57.288Z,13.83
2023-05-14T08:15:57.306Z,13.83
2023-05-14T08:16:57.269Z,13.76
2023-05-14T08:17:57.302Z,13.66
2023-05-14T08:18:57.310Z,13.61
2023-05-14T08:19:57.232Z,13.55
2023-05-14T08:20:57.243Z,13.50
2023-05-14T08:21:57.213Z,13.50
2023-05-14T08:22:57.194Z,13.54
2023-05-14T08:23:57.735Z,13.59
2023-05-14T08:24:57.164Z,13.65
2023-05-14T08:25:57.188Z,13.72
2023-05-14T08:26:57.151Z,13.79
2023-05-14T08:27:57.137Z,13.84
2023-05-14T08:28:57.150Z,13.93
2023-05-14T08:29:57.154Z,13.99
2023-05-14T08:30:57.135Z,14.06
2023-05-14T08:31:57.090Z,14.12
2023-05-14T08:32:57.105Z,14.20
2023-05-14T08:33:57.105Z,14.21
2023-05-14T08:34:57.070Z,14.27
2023-05-14T08:35:57.054Z,14.36
2023-05-14T08:36:57.042Z,14.42
2023-05-14T08:37:57.044Z,14.49
2023-05-14T08:38:57.038Z,14.45
2023-05-14T08:39:57.029Z,14.46
2023-05-14T08:40:57.017Z,14.41
2023-05-14T08:41:57.004Z,14.30
2023-05-14T08:42:56.986Z,14.17
2023-05-14T08:43:56.978Z,14.12
2023-05-14T08:44:56.971Z,14.13
2023-05-14T08:45:56.968Z,14.13
2023-05-14T08:46:56.946Z,14.06
2023-05-14T08:47:57.084Z,14.04
2023-05-14T08:48:57.024Z,14.04
2023-05-14T08:49:56.916Z,14.02
2023-05-14T08:50:56.894Z,14.04
2023-05-14T08:51:56.893Z,14.05
2023-05-14T08:52:56.893Z,14.12
2023-05-14T08:53:56.864Z,14.17
2023-05-14T08:54:56.850Z,14.19
2023-05-14T08:55:56.843Z,14.13
2023-05-14T08:56:56.818Z,14.17
2023-05-14T08:57:56.811Z,14.23
2023-05-14T08:58:56.796Z,14.24
2023-05-14T08:59:56.808Z,14.27
2023-05-14T09:00:56.797Z,14.29
2023-05-14T09:01:56.782Z,14.34
2023-05-14T09:02:56.806Z,14.42
2023-05-14T09:03:56.800Z,14.52
2023-05-14T09:04:56.788Z,14.54
2023-05-14T09:05:58.682Z,14.56
2023-05-14T09:06:56.724Z,14.56
2023-05-14T09:07:56.715Z,14.57
2023-05-14T09:08:56.699Z,14.57
2023-05-14T09:09:56.686Z,14.56
2023-05-14T09:10:56.685Z,14.57
2023-05-14T09:11:56.674Z,14.53
2023-05-14T09:12:56.651Z,14.52
2023-05-14T09:13:56.624Z,14.41
2023-05-14T09:14:56.634Z,14.39
2023-05-14T09:15:56.697Z,14.34
2023-05-14T09:16:56.603Z,14.38
2023-05-14T09:17:56.614Z,14.39
2023-05-14T09:18:56.679Z,14.44
2023-05-14T09:19:56.576Z,14.46
2023-05-14T09:20:56.590Z,14.52
2023-05-14T09:21:56.549Z,14.53
2023-05-14T09:22:56.562Z,14.61
2023-05-14T09:23:56.542Z,14.63
2023-05-14T09:24:56.523Z,14.64
2023-05-14T09:25:56.488Z,14.66
2023-05-14T09:26:56.521Z,14.64
2023-05-14T09:27:58.675Z,14.72
2023-05-14T09:28:56.476Z,14.71
2023-05-14T09:29:56.469Z,14.75
2023-05-14T09:30:56.460Z,14.80
2023-05-14T09:31:56.522Z,14.90
2023-05-14T09:32:56.518Z,14.91
2023-05-14T09:33:56.411Z,14.94
2023-05-14T09:34:56.433Z,14.97
2023-05-14T09:35:58.226Z,14.94
2023-05-14T09:36:56.394Z,14.91
2023-05-14T09:37:56.411Z,14.90
2023-05-14T09:38:56.357Z,14.79
2023-05-14T09:39:56.361Z,14.72
2023-05-14T09:40:56.350Z,14.75
2023-05-14T09:41:56.352Z,14.74
2023-05-14T09:42:56.347Z,14.69
2023-05-14T09:43:56.299Z,14.63
2023-05-14T09:44:56.300Z,14.56
2023-05-14T09:45:56.299Z,14.54
2023-05-14T09:46:56.304Z,14.61
2023-05-14T09:47:56.427Z,14.72
2023-05-14T09:48:56.506Z,14.78
2023-05-14T09:49:56.236Z,14.78
2023-05-14T09:50:56.227Z,14.72
2023-05-14T09:51:56.225Z,14.71
2023-05-14T09:52:56.253Z,14.69
2023-05-14T09:53:56.212Z,14.64
2023-05-14T09:54:56.197Z,14.66
2023-05-14T09:55:56.201Z,14.63
2023-05-14T09:56:56.175Z,14.60
2023-05-14T09:57:56.164Z,14.59
2023-05-14T09:58:56.158Z,14.57
2023-05-14T09:59:56.171Z,14.53
2023-05-14T10:00:56.181Z,14.54
2023-05-14T10:01:56.128Z,14.57
2023-05-14T10:02:56.157Z,14.61
2023-05-14T10:03:56.125Z,14.66
2023-05-14T10:04:56.087Z,14.71
2023-05-14T10:05:56.080Z,14.72
2023-05-14T10:06:56.123Z,14.69
2023-05-14T10:07:56.090Z,14.75
2023-05-14T10:08:56.107Z,14.82
2023-05-14T10:09:57.606Z,14.90
2023-05-14T10:10:56.159Z,14.98
2023-05-14T10:11:56.065Z,15.12
2023-05-14T10:12:56.317Z,15.16
2023-05-14T10:13:56.089Z,15.25
2023-05-14T10:14:56.079Z,15.20
2023-05-14T10:15:56.049Z,15.15
2023-05-14T10:16:57.081Z,15.18
2023-05-14T10:17:56.138Z,15.19
2023-05-14T10:18:57.422Z,15.15
2023-05-14T10:19:56.364Z,15.18
2023-05-14T10:20:56.001Z,15.19
2023-05-14T10:21:55.955Z,15.22
2023-05-14T10:22:56.837Z,15.28
2023-05-14T10:23:55.970Z,15.34
2023-05-14T10:24:55.968Z,15.43
2023-05-14T10:25:55.982Z,15.48
2023-05-14T10:26:56.270Z,15.53
2023-05-14T10:27:55.921Z,15.51
2023-05-14T10:28:55.947Z,15.49
2023-05-14T10:29:55.897Z,15.34
2023-05-14T10:30:55.854Z,15.25
2023-05-14T10:31:55.811Z,15.25
2023-05-14T10:32:55.863Z,15.30
2023-05-14T10:33:56.329Z,15.33
2023-05-14T10:34:55.758Z,15.34
2023-05-14T10:35:55.739Z,15.37
2023-05-14T10:36:55.725Z,15.34
2023-05-14T10:37:55.727Z,15.33
2023-05-14T10:38:55.749Z,15.33
2023-05-14T10:39:55.707Z,15.35
2023-05-14T10:40:55.712Z,15.43
2023-05-14T10:41:55.675Z,15.46
2023-05-14T10:42:55.674Z,15.48
2023-05-14T10:43:56.065Z,15.58
2023-05-14T10:44:55.654Z,15.66
2023-05-14T10:45:55.633Z,15.71
2023-05-14T10:46:55.660Z,15.77
2023-05-14T10:47:55.639Z,15.86
2023-05-14T10:48:55.610Z,15.89
2023-05-14T10:49:55.594Z,15.91
2023-05-14T10:50:55.608Z,15.88
2023-05-14T10:51:55.569Z,15.88
2023-05-14T10:52:55.568Z,15.78
2023-05-14T10:53:55.544Z,15.78
2023-05-14T10:54:55.557Z,15.89
2023-05-14T10:55:55.526Z,15.98
2023-05-14T10:56:55.529Z,15.98
2023-05-14T10:57:55.515Z,15.95
2023-05-14T10:58:55.507Z,16.03
2023-05-14T10:59:55.477Z,16.14
2023-05-14T11:00:55.520Z,16.32
2023-05-14T11:01:55.512Z,16.47
2023-05-14T11:02:55.518Z,16.48
2023-05-14T11:03:55.497Z,16.54
2023-05-14T11:04:55.458Z,16.63
2023-05-14T11:05:55.422Z,16.65
2023-05-14T11:06:55.422Z,16.59
2023-05-14T11:07:55.408Z,16.54
2023-05-14T11:08:55.396Z,16.59
2023-05-14T11:09:55.373Z,16.70
2023-05-14T11:10:55.387Z,16.82
2023-05-14T11:11:55.397Z,16.87
2023-05-14T11:12:55.344Z,16.65
2023-05-14T11:13:55.331Z,16.47
2023-05-14T11:14:55.364Z,16.26
2023-05-14T11:15:55.333Z,16.01
2023-05-14T11:16:55.402Z,15.80
2023-05-14T11:17:55.377Z,15.56
2023-05-14T11:18:55.316Z,15.37
2023-05-14T11:19:55.277Z,15.00
2023-05-14T11:20:55.276Z,14.83
2023-05-14T11:21:55.267Z,14.60
2023-05-14T11:22:55.242Z,14.56
2023-05-14T11:23:55.245Z,14.39
2023-05-14T11:24:55.240Z,14.27
2023-05-14T11:25:55.326Z,14.11
2023-05-14T11:26:55.219Z,13.98
2023-05-14T11:27:55.203Z,13.91
2023-05-14T11:28:55.201Z,13.83
2023-05-14T11:29:55.181Z,13.83
2023-05-14T11:30:55.174Z,13.83
2023-05-14T11:31:55.213Z,13.79
2023-05-14T11:32:55.184Z,13.71
2023-05-14T11:33:55.141Z,13.73
2023-05-14T11:34:55.136Z,13.79
2023-05-14T11:35:55.106Z,13.87
2023-05-14T11:36:55.123Z,13.96
2023-05-14T11:37:55.112Z,14.04
2023-05-14T11:38:55.097Z,14.05
2023-05-14T11:39:55.106Z,14.06
2023-05-14T11:40:55.080Z,14.05
2023-05-14T11:41:55.068Z,14.06
2023-05-14T11:42:55.076Z,14.05
2023-05-14T11:43:55.036Z,14.04
2023-05-14T11:44:55.021Z,14.04
2023-05-14T11:45:55.022Z,14.06
2023-05-14T11:46:55.001Z,14.05
2023-05-14T11:47:55.114Z,14.11
2023-05-14T11:48:54.964Z,14.17
2023-05-14T11:49:54.956Z,14.29
2023-05-14T11:50:54.944Z,14.42
2023-05-14T11:51:54.939Z,14.49
2023-05-14T11:52:54.944Z,14.59
2023-05-14T11:53:54.920Z,14.69
2023-05-14T11:54:54.906Z,14.56
2023-05-14T11:55:54.895Z,14.54
2023-05-14T11:56:54.879Z,14.64
2023-05-14T11:57:54.889Z,14.72
2023-05-14T11:58:54.876Z,14.79
2023-05-14T11:59:54.838Z,14.93
2023-05-14T12:00:54.837Z,15.03
2023-05-14T12:01:54.836Z,15.13
2023-05-14T12:02:54.910Z,15.31
2023-05-14T12:03:54.909Z,15.48
2023-05-14T12:04:54.830Z,15.58
2023-05-14T12:05:54.763Z,15.68
2023-05-14T12:06:54.759Z,15.80
2023-05-14T12:07:54.758Z,15.99
2023-05-14T12:08:54.737Z,16.16
2023-05-14T12:09:54.715Z,16.41
2023-05-14T12:10:54.752Z,16.55
2023-05-14T12:11:54.697Z,16.78
2023-05-14T12:12:54.689Z,16.91
2023-05-14T12:13:54.702Z,17.02
2023-05-14T12:14:54.672Z,17.05
2023-05-14T12:15:54.691Z,17.05
2023-05-14T12:16:54.654Z,17.06
2023-05-14T12:17:54.691Z,17.09
2023-05-14T12:18:54.679Z,17.15
2023-05-14T12:19:54.652Z,17.18
2023-05-14T12:20:54.625Z,17.24
2023-05-14T12:21:54.611Z,17.28
2023-05-14T12:22:54.601Z,17.36
2023-05-14T12:23:54.595Z,17.47
2023-05-14T12:24:54.588Z,17.62
2023-05-14T12:25:54.570Z,17.70
2023-05-14T12:26:54.573Z,17.74
2023-05-14T12:27:54.547Z,17.77
2023-05-14T12:28:54.541Z,17.76
2023-05-14T12:29:54.545Z,17.80
2023-05-14T12:30:54.530Z,17.76
2023-05-14T12:31:54.551Z,17.70
2023-05-14T12:32:54.590Z,17.68
2023-05-14T12:33:54.476Z,17.66
2023-05-14T12:34:54.483Z,17.58
2023-05-14T12:35:54.487Z,17.22
2023-05-14T12:36:54.472Z,16.66
2023-05-14T12:37:54.446Z,16.10
2023-05-14T12:38:54.437Z,15.33
2023-05-14T12:39:54.473Z,14.57
2023-05-14T12:40:54.442Z,13.96
2023-05-14T12:41:54.418Z,13.43
2023-05-14T12:42:56.613Z,13.14
2023-05-14T12:43:54.418Z,12.92
2023-05-14T12:44:54.387Z,12.77
2023-05-14T12:45:54.392Z,12.48
2023-05-14T12:46:54.387Z,12.05
2023-05-14T12:47:54.387Z,11.98
2023-05-14T12:48:54.348Z,11.94
2023-05-14T12:49:54.361Z,11.84
2023-05-14T12:50:54.312Z,11.87
2023-05-14T12:52:07.704Z,11.85
2023-05-14T12:52:54.285Z,11.90
2023-05-14T12:53:54.298Z,11.98
2023-05-14T12:54:54.287Z,11.94
2023-05-14T12:55:54.293Z,11.78
2023-05-14T12:56:54.243Z,11.70
2023-05-14T12:57:54.238Z,11.64
2023-05-14T12:58:54.225Z,11.66
2023-05-14T12:59:54.202Z,11.75
2023-05-14T13:00:54.247Z,11.88
2023-05-14T13:01:54.182Z,11.94
2023-05-14T13:02:54.219Z,12.00
2023-05-14T13:03:54.208Z,12.01